createdAt,value
2023-05-19T00:00:37.217Z,99.99
2023-05-19T00:03:11.049Z,99.99
2023-05-19T00:05:46.958Z,99.99
2023-05-19T00:08:18.165Z,99.99
2023-05-19T00:10:46.969Z,99.99
2023-05-19T00:13:16.329Z,99.99
2023-05-19T00:15:48.064Z,99.99
2023-05-19T00:18:21.740Z,99.99
2023-05-19T00:20:52.661Z,99.99
2023-05-19T00:23:25.304Z,99.99
2023-05-19T00:25:54.117Z,99.99
2023-05-19T00:28:29.701Z,99.99
2023-05-19T00:31:03.001Z,99.99
2023-05-19T00:33:35.318Z,99.99
2023-05-19T00:36:14.489Z,99.99
2023-05-19T00:38:49.291Z,99.99
2023-05-19T00:41:17.976Z,99.99
2023-05-19T00:43:49.318Z,99.99
2023-05-19T00:46:21.292Z,99.99
2023-05-19T00:48:49.692Z,99.99
2023-05-19T00:51:19.855Z,99.99
2023-05-19T00:53:51.214Z,99.99
2023-05-19T00:56:24.358Z,99.99
2023-05-19T00:58:53.608Z,99.99
2023-05-19T01:01:26.894Z,99.99
2023-05-19T01:04:01.244Z,99.99
2023-05-19T01:06:31.838Z,99.99
2023-05-19T01:09:01.304Z,99.99
2023-05-19T01:11:31.523Z,99.99
2023-05-19T01:14:03.537Z,99.99
2023-05-19T01:16:38.246Z,99.99
2023-05-19T01:19:16.080Z,99.99
2023-05-19T01:22:23.051Z,99.99
2023-05-19T01:25:24.451Z,99.99
2023-05-19T01:28:22.291Z,99.99
2023-05-19T01:30:59.013Z,99.99
2023-05-19T01:33:32.681Z,99.99
2023-05-19T01:36:06.272Z,99.99
2023-05-19T01:38:35.754Z,99.99
2023-05-19T01:41:08.112Z,99.99
2023-05-19T01:43:37.649Z,99.99
2023-05-19T01:46:11.266Z,99.99
2023-05-19T01:48:42.498Z,99.99
2023-05-19T01:51:12.166Z,99.99
2023-05-19T01:53:52.710Z,99.99
2023-05-19T01:56:36.444Z,99.99
2023-05-19T01:59:16.641Z,99.99
2023-05-19T02:01:58.146Z,99.99
2023-05-19T02:04:42.349Z,99.99
2023-05-19T02:07:19.651Z,99.99
2023-05-19T02:09:54.624Z,99.99
2023-05-19T02:12:29.697Z,99.99
2023-05-19T02:15:04.714Z,99.99
2023-05-19T02:17:39.166Z,99.99
2023-05-19T02:20:15.549Z,99.99
2023-05-19T02:22:44.704Z,99.99
2023-05-19T02:25:30.850Z,99.99
2023-05-19T02:28:00.938Z,99.99
2023-05-19T02:30:32.820Z,99.99
2023-05-19T02:33:06.397Z,99.99
2023-05-19T02:35:36.713Z,99.99
2023-05-19T02:38:05.391Z,99.99
2023-05-19T02:40:33.784Z,99.99
2023-05-19T02:43:04.622Z,99.99
2023-05-19T02:45:34.152Z,99.99
2023-05-19T02:48:07.275Z,99.99
2023-05-19T02:50:37.210Z,99.99
2023-05-19T02:53:08.588Z,99.99
2023-05-19T02:55:37.488Z,99.99
2023-05-19T02:58:05.722Z,99.99
2023-05-19T03:00:35.589Z,99.99
2023-05-19T03:03:06.019Z,99.99
2023-05-19T03:05:36.840Z,99.99
2023-05-19T03:08:11.706Z,99.99
2023-05-19T03:10:46.424Z,99.99
2023-05-19T03:13:17.110Z,99.99
2023-05-19T03:15:46.520Z,99.99
2023-05-19T03:18:24.889Z,99.99
2023-05-19T03:20:55.454Z,99.99
2023-05-19T03:23:26.756Z,99.99
2023-05-19T03:25:56.085Z,99.99
2023-05-19T03:28:27.324Z,99.99
2023-05-19T03:30:57.508Z,99.99
2023-05-19T03:33:30.564Z,99.99
2023-05-19T03:36:02.138Z,99.99
2023-05-19T03:38:34.409Z,99.99
2023-05-19T03:41:04.977Z,99.99
2023-05-19T03:43:35.138Z,99.99
2023-05-19T03:46:05.769Z,99.99
2023-05-19T03:48:39.902Z,99.99
2023-05-19T03:51:13.700Z,99.99
2023-05-19T03:53:47.066Z,99.99
2023-05-19T03:56:20.810Z,99.99
2023-05-19T03:58:54.808Z,99.99
2023-05-19T04:01:25.788Z,99.99
2023-05-19T04:03:58.389Z,99.99
2023-05-19T04:06:34.098Z,99.99
2023-05-19T04:09:16.220Z,99.99
2023-05-19T04:11:46.098Z,99.99
2023-05-19T04:14:16.094Z,99.99
2023-05-19T04:16:47.568Z,99.99
2023-05-19T04:19:18.868Z,99.99
2023-05-19T04:21:47.796Z,99.99
2023-05-19T04:24:17.122Z,99.99
2023-05-19T04:26:53.360Z,99.99
2023-05-19T04:29:23.475Z,99.99
2023-05-19T04:31:54.930Z,99.99
2023-05-19T04:34:29.067Z,99.81
2023-05-19T04:36:59.235Z,99.99
2023-05-19T04:39:29.522Z,99.99
2023-05-19T04:42:02.762Z,99.77
2023-05-19T04:44:35.732Z,99.96
2023-05-19T04:47:06.423Z,99.75
2023-05-19T04:49:39.574Z,99.70
2023-05-19T04:52:13.995Z,98.74
2023-05-19T04:54:45.443Z,98.70
2023-05-19T04:57:14.121Z,99.18
2023-05-19T04:59:44.650Z,99.39
2023-05-19T05:02:13.805Z,98.56
2023-05-19T05:04:47.545Z,98.44
2023-05-19T05:07:20.206Z,97.70
2023-05-19T05:09:50.445Z,98.13
2023-05-19T05:12:20.812Z,97.70
2023-05-19T05:14:52.082Z,99.33
2023-05-19T05:17:27.723Z,98.39
2023-05-19T05:19:58.337Z,98.41
2023-05-19T05:22:27.318Z,97.84
2023-05-19T05:24:56.479Z,97.94
2023-05-19T05:27:28.987Z,97.43
2023-05-19T05:30:01.148Z,97.00
2023-05-19T05:32:29.864Z,96.30
2023-05-19T05:35:01.323Z,96.21
2023-05-19T05:37:30.351Z,95.79
2023-05-19T05:39:59.735Z,95.60
2023-05-19T05:42:30.152Z,94.99
2023-05-19T05:45:02.035Z,95.56
2023-05-19T05:47:32.702Z,94.57
2023-05-19T05:50:03.748Z,94.94
2023-05-19T05:52:34.768Z,95.82
2023-05-19T05:55:03.771Z,95.06
2023-05-19T05:57:35.767Z,94.11
2023-05-19T06:00:07.821Z,93.78
2023-05-19T06:02:38.528Z,93.60
2023-05-19T06:05:12.436Z,93.16
2023-05-19T06:07:44.188Z,92.90
2023-05-19T06:10:14.343Z,93.06
2023-05-19T06:12:44.716Z,92.64
2023-05-19T06:15:18.616Z,93.09
2023-05-19T06:17:50.248Z,93.73
2023-05-19T06:20:23.184Z,93.83
2023-05-19T06:22:52.631Z,90.80
2023-05-19T06:25:21.993Z,91.71
2023-05-19T06:27:50.655Z,91.18
2023-05-19T06:30:18.961Z,91.10
2023-05-19T06:32:47.318Z,90.75
2023-05-19T06:35:16.746Z,89.84
2023-05-19T06:37:50.397Z,89.26
2023-05-19T06:40:19.709Z,90.69
2023-05-19T06:42:49.610Z,88.30
2023-05-19T06:45:21.951Z,89.33
2023-05-19T06:47:51.175Z,89.51
2023-05-19T06:50:19.951Z,89.10
2023-05-19T06:52:58.613Z,89.58
2023-05-19T06:55:27.412Z,89.46
2023-05-19T06:57:57.013Z,89.89
2023-05-19T07:00:27.232Z,88.29
2023-05-19T07:02:57.166Z,87.86
2023-05-19T07:05:25.687Z,86.24
2023-05-19T07:07:56.141Z,86.44
2023-05-19T07:10:27.938Z,88.15
2023-05-19T07:12:58.112Z,86.78
2023-05-19T07:15:32.060Z,85.98
2023-05-19T07:18:01.079Z,86.56
2023-05-19T07:20:32.517Z,87.68
2023-05-19T07:23:03.594Z,86.88
2023-05-19T07:25:31.876Z,86.56
2023-05-19T07:28:00.165Z,87.06
2023-05-19T07:30:29.477Z,87.18
2023-05-19T07:32:58.517Z,86.36
2023-05-19T07:35:32.380Z,86.75
2023-05-19T07:38:04.728Z,86.43
2023-05-19T07:40:33.084Z,85.68
2023-05-19T07:43:02.408Z,85.44
2023-05-19T07:45:32.034Z,85.58
2023-05-19T07:48:07.075Z,86.11
2023-05-19T07:50:36.091Z,85.49
2023-05-19T07:53:06.051Z,84.23
2023-05-19T07:55:34.626Z,83.31
2023-05-19T07:58:03.152Z,83.76
2023-05-19T08:00:34.810Z,83.70
2023-05-19T08:03:03.738Z,83.78
2023-05-19T08:05:32.073Z,83.39
2023-05-19T08:08:00.280Z,83.12
2023-05-19T08:10:34.600Z,83.97
2023-05-19T08:13:03.160Z,82.23
2023-05-19T08:15:32.361Z,81.50
2023-05-19T08:18:01.809Z,81.83
2023-05-19T08:20:30.330Z,82.84
2023-05-19T08:22:58.948Z,82.20
2023-05-19T08:25:27.216Z,82.62
2023-05-19T08:27:56.904Z,79.87
2023-05-19T08:30:25.676Z,79.20
2023-05-19T08:32:53.938Z,78.16
2023-05-19T08:35:22.318Z,78.92
2023-05-19T08:37:50.798Z,77.37
2023-05-19T08:40:19.440Z,79.83
2023-05-19T08:42:48.211Z,78.79
2023-05-19T08:45:18.091Z,76.83
2023-05-19T08:47:48.141Z,77.67
2023-05-19T08:50:23.019Z,81.38
2023-05-19T08:52:54.291Z,80.65
2023-05-19T08:55:34.334Z,78.09
2023-05-19T08:58:04.857Z,77.40
2023-05-19T09:00:37.847Z,79.25
2023-05-19T09:03:18.166Z,79.34
2023-05-19T09:05:52.698Z,76.93
2023-05-19T09:08:21.005Z,75.63
2023-05-19T09:10:49.499Z,77.29
2023-05-19T09:13:17.957Z,78.58
2023-05-19T09:15:48.125Z,76.86
2023-05-19T09:18:16.382Z,75.65
2023-05-19T09:20:46.126Z,75.79
2023-05-19T09:23:16.317Z,76.15
2023-05-19T09:25:49.419Z,74.68
2023-05-19T09:28:25.344Z,74.03
2023-05-19T09:31:06.282Z,75.62
2023-05-19T09:33:36.522Z,72.26
2023-05-19T09:36:06.673Z,74.88
2023-05-19T09:38:36.673Z,75.85
2023-05-19T09:41:06.350Z,76.41
2023-05-19T09:43:35.917Z,76.49
2023-05-19T09:46:12.164Z,73.43
2023-05-19T09:48:42.891Z,73.62
2023-05-19T09:51:11.785Z,71.23
2023-05-19T09:53:40.152Z,70.32
2023-05-19T09:56:10.451Z,70.12
2023-05-19T09:58:39.379Z,69.72
2023-05-19T10:01:10.952Z,73.45
2023-05-19T10:03:40.872Z,76.06
2023-05-19T10:06:09.444Z,72.04
2023-05-19T10:08:38.926Z,73.53
2023-05-19T10:11:08.467Z,70.78
2023-05-19T10:13:39.804Z,68.42
2023-05-19T10:16:20.160Z,69.67
2023-05-19T10:18:50.695Z,67.22
2023-05-19T10:21:20.859Z,66.58
2023-05-19T10:23:50.388Z,68.69
2023-05-19T10:26:19.549Z,68.47
2023-05-19T10:28:49.537Z,71.52
2023-05-19T10:31:24.414Z,72.97
2023-05-19T10:34:13.799Z,71.73
2023-05-19T10:36:48.873Z,70.71
2023-05-19T10:39:20.936Z,70.82
2023-05-19T10:42:00.255Z,71.75
2023-05-19T10:44:42.106Z,71.09
2023-05-19T10:47:12.569Z,70.19
2023-05-19T10:49:46.942Z,69.67
2023-05-19T10:52:30.137Z,69.87
2023-05-19T10:54:59.333Z,68.28
2023-05-19T10:57:32.387Z,68.74
2023-05-19T11:00:11.496Z,67.13
2023-05-19T11:02:45.336Z,67.88
2023-05-19T11:05:18.529Z,65.81
2023-05-19T11:08:02.168Z,66.65
2023-05-19T11:10:34.581Z,67.34
2023-05-19T11:13:03.729Z,67.51
2023-05-19T11:15:40.724Z,63.74
2023-05-19T11:18:20.573Z,60.87
2023-05-19T11:21:02.699Z,64.71
2023-05-19T11:23:35.775Z,64.44
2023-05-19T11:26:04.271Z,65.65
2023-05-19T11:28:34.236Z,64.95
2023-05-19T11:31:04.140Z,66.11
2023-05-19T11:33:36.890Z,65.40
2023-05-19T11:36:10.262Z,67.67
2023-05-19T11:38:40.759Z,68.30
2023-05-19T11:41:09.294Z,69.26
2023-05-19T11:43:42.523Z,67.37
2023-05-19T11:46:11.388Z,63.66
2023-05-19T11:48:41.314Z,63.27
2023-05-19T11:51:13.356Z,66.20
2023-05-19T11:53:46.138Z,67.02
2023-05-19T11:56:18.601Z,67.16
2023-05-19T11:58:47.376Z,67.17
2023-05-19T12:01:16.239Z,68.93
2023-05-19T12:03:46.599Z,68.15
2023-05-19T12:06:18.991Z,65.64
2023-05-19T12:08:47.270Z,64.72
2023-05-19T12:11:16.992Z,64.73
2023-05-19T12:13:46.495Z,64.79
2023-05-19T12:16:14.883Z,64.14
2023-05-19T12:18:45.357Z,60.47
2023-05-19T12:21:17.457Z,62.37
2023-05-19T12:23:46.615Z,59.96
2023-05-19T12:26:16.420Z,61.81
2023-05-19T12:28:54.031Z,62.68
2023-05-19T12:31:23.576Z,63.00
2023-05-19T12:33:53.944Z,62.60
2023-05-19T12:36:24.970Z,63.94
2023-05-19T12:38:55.846Z,61.58
2023-05-19T12:41:27.303Z,64.88
2023-05-19T12:43:56.749Z,64.50
2023-05-19T12:46:25.148Z,62.22
2023-05-19T12:49:01.026Z,61.19
2023-05-19T12:51:29.590Z,60.48
2023-05-19T12:53:58.484Z,62.71
2023-05-19T12:56:28.098Z,64.30
2023-05-19T12:58:56.728Z,62.33
2023-05-19T13:01:25.440Z,62.25
2023-05-19T13:03:55.639Z,62.36
2023-05-19T13:06:24.846Z,62.45
2023-05-19T13:08:53.443Z,61.83
2023-05-19T13:11:21.898Z,62.76
2023-05-19T13:13:53.075Z,62.94
2023-05-19T13:16:21.681Z,63.89
2023-05-19T13:18:53.749Z,61.68
2023-05-19T13:21:24.994Z,61.09
2023-05-19T13:23:59.642Z,63.07
2023-05-19T13:26:31.267Z,61.04
2023-05-19T13:28:59.889Z,61.18
2023-05-19T13:31:28.575Z,63.38
2023-05-19T13:33:56.818Z,61.21
2023-05-19T13:36:29.558Z,61.63
2023-05-19T13:39:01.483Z,62.48
2023-05-19T13:41:30.374Z,62.17
2023-05-19T13:43:59.791Z,62.29
2023-05-19T13:46:43.863Z,61.36
2023-05-19T13:49:13.943Z,60.34
2023-05-19T13:51:45.181Z,61.35
2023-05-19T13:54:14.035Z,60.25
2023-05-19T13:56:46.143Z,61.99
2023-05-19T13:59:18.620Z,60.40
2023-05-19T14:01:47.061Z,62.95
2023-05-19T14:04:20.203Z,61.98
2023-05-19T14:06:50.629Z,59.28
2023-05-19T14:09:19.685Z,60.97
2023-05-19T14:11:50.333Z,61.31
2023-05-19T14:14:20.387Z,59.79
2023-05-19T14:16:52.684Z,58.56
2023-05-19T14:19:21.079Z,57.95
2023-05-19T14:21:58.806Z,61.00
2023-05-19T14:24:27.388Z,60.48
2023-05-19T14:26:59.338Z,60.16
2023-05-19T14:29:28.056Z,57.97
2023-05-19T14:31:57.631Z,61.08
2023-05-19T14:34:32.594Z,60.24
2023-05-19T14:37:07.313Z,60.72
2023-05-19T14:39:36.815Z,61.86
2023-05-19T14:42:08.143Z,59.57
2023-05-19T14:44:38.405Z,60.53
2023-05-19T14:47:08.482Z,60.81
2023-05-19T14:49:36.972Z,59.30
2023-05-19T14:52:10.342Z,60.03
2023-05-19T14:54:38.599Z,59.04
2023-05-19T14:57:08.245Z,59.60
2023-05-19T14:59:38.612Z,59.91
2023-05-19T15:02:07.420Z,60.88
2023-05-19T15:04:40.683Z,61.27
2023-05-19T15:07:15.618Z,57.31
2023-05-19T15:09:47.290Z,58.06
2023-05-19T15:12:15.831Z,59.61
2023-05-19T15:14:44.053Z,59.84
2023-05-19T15:17:13.794Z,59.98
2023-05-19T15:19:42.929Z,59.83
2023-05-19T15:22:13.309Z,59.35
2023-05-19T15:24:42.385Z,59.46
2023-05-19T15:27:11.094Z,60.90
2023-05-19T15:29:43.509Z,62.09
2023-05-19T15:32:12.494Z,62.64
2023-05-19T15:34:43.572Z,59.97
2023-05-19T15:37:14.252Z,60.86
2023-05-19T15:39:43.012Z,61.83
2023-05-19T15:42:11.382Z,62.63
2023-05-19T15:44:41.996Z,63.20
2023-05-19T15:47:10.543Z,62.29
2023-05-19T15:49:38.994Z,62.24
2023-05-19T15:52:09.005Z,62.98
2023-05-19T15:54:38.856Z,64.76
2023-05-19T15:57:09.748Z,63.81
2023-05-19T15:59:38.153Z,64.74
2023-05-19T16:02:06.955Z,64.43
2023-05-19T16:04:36.667Z,64.55
2023-05-19T16:07:05.397Z,64.91
2023-05-19T16:09:33.941Z,64.58
2023-05-19T16:12:07.002Z,65.00
2023-05-19T16:14:36.950Z,64.86
2023-05-19T16:17:11.251Z,63.09
2023-05-19T16:19:40.026Z,64.45
2023-05-19T16:22:09.264Z,64.75
2023-05-19T16:24:38.042Z,65.57
2023-05-19T16:27:08.218Z,65.77
2023-05-19T16:29:38.042Z,63.72
2023-05-19T16:32:08.710Z,64.53
2023-05-19T16:34:37.457Z,64.31
2023-05-19T16:37:06.182Z,64.88
2023-05-19T16:39:43.777Z,65.89
2023-05-19T16:42:16.526Z,66.37
2023-05-19T16:44:45.356Z,66.36
2023-05-19T16:47:13.992Z,66.94
2023-05-19T16:49:44.192Z,67.27
2023-05-19T16:52:22.104Z,67.68
2023-05-19T16:54:54.761Z,69.25
2023-05-19T16:57:32.355Z,69.10
2023-05-19T17:00:01.846Z,70.66
2023-05-19T17:02:30.593Z,71.22
2023-05-19T17:04:59.430Z,72.38
2023-05-19T17:07:29.308Z,72.09
2023-05-19T17:09:59.941Z,71.96
2023-05-19T17:12:32.133Z,72.56
2023-05-19T17:15:01.660Z,73.79
2023-05-19T17:17:30.027Z,74.04
2023-05-19T17:19:58.536Z,74.87
2023-05-19T17:22:28.818Z,76.16
2023-05-19T17:24:58.969Z,75.15
2023-05-19T17:27:27.529Z,76.62
2023-05-19T17:29:59.208Z,76.06
2023-05-19T17:32:29.249Z,75.92
2023-05-19T17:35:00.242Z,75.90
2023-05-19T17:37:30.207Z,76.33
2023-05-19T17:40:05.837Z,75.94
2023-05-19T17:42:34.377Z,76.58
2023-05-19T17:45:07.685Z,76.85
2023-05-19T17:47:36.974Z,76.96
2023-05-19T17:50:05.775Z,77.23
2023-05-19T17:52:35.348Z,77.24
2023-05-19T17:55:07.131Z,77.49
2023-05-19T17:57:36.558Z,77.19
2023-05-19T18:00:10.139Z,78.46
2023-05-19T18:02:40.299Z,79.30
2023-05-19T18:05:12.710Z,79.63
2023-05-19T18:07:43.934Z,80.92
2023-05-19T18:10:22.636Z,80.79
2023-05-19T18:12:51.233Z,81.91
2023-05-19T18:15:21.060Z,82.95
2023-05-19T18:17:52.530Z,83.75
2023-05-19T18:20:23.898Z,84.20
2023-05-19T18:22:58.861Z,84.84
2023-05-19T18:25:29.085Z,85.28
2023-05-19T18:28:00.230Z,85.69
2023-05-19T18:30:32.558Z,86.36
2023-05-19T18:33:04.087Z,86.48
2023-05-19T18:35:35.714Z,86.58
2023-05-19T18:38:04.034Z,87.68
2023-05-19T18:40:36.484Z,88.18
2023-05-19T18:43:05.943Z,88.78
2023-05-19T18:45:39.143Z,89.03
2023-05-19T18:48:10.338Z,89.31
2023-05-19T18:50:41.328Z,89.05
2023-05-19T18:53:09.786Z,89.60
2023-05-19T18:55:42.404Z,90.23
2023-05-19T18:58:15.366Z,91.30
2023-05-19T19:00:46.864Z,91.62
2023-05-19T19:03:23.724Z,91.74
2023-05-19T19:05:57.521Z,91.80
2023-05-19T19:08:27.820Z,91.51
2023-05-19T19:11:00.328Z,91.93
2023-05-19T19:13:29.952Z,91.92
2023-05-19T19:16:05.427Z,92.53
2023-05-19T19:18:36.412Z,93.26
2023-05-19T19:21:13.313Z,93.53
2023-05-19T19:23:41.530Z,93.46
2023-05-19T19:26:09.991Z,93.59
2023-05-19T19:28:38.598Z,94.18
2023-05-19T19:31:14.353Z,94.19
2023-05-19T19:33:43.551Z,93.73
2023-05-19T19:36:12.713Z,93.83
2023-05-19T19:38:44.280Z,94.14
2023-05-19T19:41:15.394Z,94.38
2023-05-19T19:43:49.660Z,94.37
2023-05-19T19:46:25.150Z,94.54
2023-05-19T19:48:57.503Z,94.53
2023-05-19T19:51:29.373Z,94.61
2023-05-19T19:53:58.709Z,94.54
2023-05-19T19:56:27.682Z,94.42
2023-05-19T19:58:59.560Z,94.45
2023-05-19T20:01:30.100Z,93.96
2023-05-19T20:04:01.063Z,94.00
2023-05-19T20:06:29.519Z,93.83
2023-05-19T20:09:00.843Z,93.47
2023-05-19T20:11:32.265Z,93.61
2023-05-19T20:14:05.328Z,93.12
2023-05-19T20:16:40.882Z,94.75
2023-05-19T20:19:14.644Z,95.47
2023-05-19T20:21:45.835Z,95.55
2023-05-19T20:24:24.439Z,94.99
2023-05-19T20:26:56.005Z,94.13
2023-05-19T20:29:27.506Z,94.28
2023-05-19T20:32:08.955Z,94.17
2023-05-19T20:34:42.210Z,94.06
2023-05-19T20:37:10.882Z,94.82
2023-05-19T20:39:39.961Z,94.77
2023-05-19T20:42:11.927Z,94.80
2023-05-19T20:44:40.854Z,94.72
2023-05-19T20:47:12.179Z,94.25
2023-05-19T20:49:40.613Z,94.49
2023-05-19T20:52:09.309Z,94.54
2023-05-19T20:54:43.258Z,94.21
2023-05-19T20:57:15.428Z,94.09
2023-05-19T20:59:49.095Z,94.13
2023-05-19T21:02:22.869Z,94.27
2023-05-19T21:04:52.541Z,94.84
2023-05-19T21:07:27.346Z,95.08
2023-05-19T21:09:57.716Z,94.40
2023-05-19T21:12:34.395Z,94.23
2023-05-19T21:15:03.820Z,93.63
2023-05-19T21:17:41.222Z,92.64
2023-05-19T21:20:12.870Z,93.42
2023-05-19T21:22:43.484Z,93.49
2023-05-19T21:25:17.226Z,93.41
2023-05-19T21:27:46.443Z,94.13
2023-05-19T21:30:16.470Z,94.16
2023-05-19T21:32:47.460Z,94.00
2023-05-19T21:35:17.200Z,95.07
2023-05-19T21:37:50.373Z,94.43
2023-05-19T21:40:19.537Z,95.02
2023-05-19T21:42:50.191Z,95.86
2023-05-19T21:45:23.390Z,95.83
2023-05-19T21:47:53.535Z,96.23
2023-05-19T21:50:25.175Z,96.85
2023-05-19T21:52:55.486Z,96.82
2023-05-19T21:55:24.754Z,97.55
2023-05-19T21:57:53.088Z,97.95
2023-05-19T22:00:25.770Z,98.20
2023-05-19T22:02:57.505Z,98.04
2023-05-19T22:05:28.151Z,97.84
2023-05-19T22:08:01.265Z,97.74
2023-05-19T22:10:33.251Z,98.02
2023-05-19T22:13:05.035Z,98.19
2023-05-19T22:15:36.463Z,97.90
2023-05-19T22:18:07.014Z,97.30
2023-05-19T22:20:37.850Z,97.19
2023-05-19T22:23:11.105Z,97.02
2023-05-19T22:25:41.439Z,97.09
2023-05-19T22:28:16.083Z,96.91
2023-05-19T22:30:53.664Z,97.18
2023-05-19T22:33:24.993Z,96.95
2023-05-19T22:35:53.558Z,97.09
2023-05-19T22:38:27.208Z,96.95
2023-05-19T22:40:57.473Z,96.89
2023-05-19T22:43:34.105Z,97.20
2023-05-19T22:46:04.708Z,97.22
2023-05-19T22:48:34.581Z,97.09
2023-05-19T22:51:10.979Z,98.15
2023-05-19T22:53:41.987Z,97.65
2023-05-19T22:56:13.618Z,97.48
2023-05-19T22:58:49.890Z,97.71
2023-05-19T23:01:19.300Z,97.57
2023-05-19T23:03:50.785Z,97.77
2023-05-19T23:06:19.602Z,97.96
2023-05-19T23:08:48.109Z,98.20
2023-05-19T23:11:19.100Z,98.40
2023-05-19T23:13:47.676Z,98.47
2023-05-19T23:16:19.556Z,98.30
2023-05-19T23:18:48.628Z,98.25
2023-05-19T23:21:22.832Z,98.88
2023-05-19T23:23:55.615Z,98.95
2023-05-19T23:26:24.242Z,98.86
2023-05-19T23:28:52.772Z,98.87
2023-05-19T23:31:21.661Z,98.83
2023-05-19T23:33:50.755Z,99.04
2023-05-19T23:36:21.012Z,99.07
2023-05-19T23:38:51.410Z,98.86
2023-05-19T23:41:24.058Z,98.82
2023-05-19T23:43:58.393Z,99.19
2023-05-19T23:46:26.944Z,99.23
2023-05-19T23:48:57.200Z,99.54
2023-05-19T23:51:28.247Z,99.18
2023-05-19T23:53:56.688Z,99.05
2023-05-19T23:56:25.081Z,98.57
2023-05-19T23:58:56.985Z,98.03
